sensor_id;sensor_type;location;lat;lon;timestamp;temperature;humidity
13482;DHT22;6813;60.352;15.746;2023-10-19T00:01:07;4.70;99.90
13482;DHT22;6813;60.352;15.746;2023-10-19T00:03:34;4.60;99.90
13482;DHT22;6813;60.352;15.746;2023-10-19T00:06:00;4.60;99.90
13482;DHT22;6813;60.352;15.746;2023-10-19T00:08:26;4.50;99.90
13482;DHT22;6813;60.352;15.746;2023-10-19T00:11:02;4.50;99.90
13482;DHT22;6813;60.352;15.746;2023-10-19T00:13:34;4.50;99.90
13482;DHT22;6813;60.352;15.746;2023-10-19T00:16:09;4.40;99.90
13482;DHT22;6813;60.352;15.746;2023-10-19T00:18:42;4.40;99.90
13482;DHT22;6813;60.352;15.746;2023-10-19T00:21:13;4.30;99.90
13482;DHT22;6813;60.352;15.746;2023-10-19T00:23:58;4.30;99.90
13482;DHT22;6813;60.352;15.746;2023-10-19T00:26:25;4.20;99.90
13482;DHT22;6813;60.352;15.746;2023-10-19T00:28:52;4.20;99.90
13482;DHT22;6813;60.352;15.746;2023-10-19T00:31:21;4.10;99.90
13482;DHT22;6813;60.352;15.746;2023-10-19T00:33:48;4.10;99.90
13482;DHT22;6813;60.352;15.746;2023-10-19T00:36:17;4.10;99.90
13482;DHT22;6813;60.352;15.746;2023-10-19T00:38:46;4.10;99.90
13482;DHT22;6813;60.352;15.746;2023-10-19T00:41:16;4.10;99.90
13482;DHT22;6813;60.352;15.746;2023-10-19T00:43:55;4.00;99.90
13482;DHT22;6813;60.352;15.746;2023-10-19T00:46:28;4.00;99.90
13482;DHT22;6813;60.352;15.746;2023-10-19T00:49:01;4.00;99.90
13482;DHT22;6813;60.352;15.746;2023-10-19T00:51:29;4.00;99.90
13482;DHT22;6813;60.352;15.746;2023-10-19T00:54:17;4.00;99.90
13482;DHT22;6813;60.352;15.746;2023-10-19T00:56:52;3.90;99.90
13482;DHT22;6813;60.352;15.746;2023-10-19T00:59:21;3.90;99.90
13482;DHT22;6813;60.352;15.746;2023-10-19T01:01:51;3.90;99.90
13482;DHT22;6813;60.352;15.746;2023-10-19T01:04:20;3.90;99.90
13482;DHT22;6813;60.352;15.746;2023-10-19T01:06:49;3.90;99.90
13482;DHT22;6813;60.352;15.746;2023-10-19T01:09:32;3.90;99.90
13482;DHT22;6813;60.352;15.746;2023-10-19T01:12:05;3.80;99.90
13482;DHT22;6813;60.352;15.746;2023-10-19T01:17:31;3.70;99.90
13482;DHT22;6813;60.352;15.746;2023-10-19T01:19:59;3.60;99.90
13482;DHT22;6813;60.352;15.746;2023-10-19T01:22:25;3.50;99.90
13482;DHT22;6813;60.352;15.746;2023-10-19T01:24:52;3.60;99.90
13482;DHT22;6813;60.352;15.746;2023-10-19T01:27:19;3.60;99.90
13482;DHT22;6813;60.352;15.746;2023-10-19T01:29:45;3.60;99.90
13482;DHT22;6813;60.352;15.746;2023-10-19T01:32:12;3.50;99.90
13482;DHT22;6813;60.352;15.746;2023-10-19T01:34:40;3.40;99.90
13482;DHT22;6813;60.352;15.746;2023-10-19T01:37:06;3.20;99.90
13482;DHT22;6813;60.352;15.746;2023-10-19T01:39:33;3.10;99.90
13482;DHT22;6813;60.352;15.746;2023-10-19T01:42:01;3.00;99.90
13482;DHT22;6813;60.352;15.746;2023-10-19T01:44:26;2.90;99.90
13482;DHT22;6813;60.352;15.746;2023-10-19T01:46:53;2.90;99.90
13482;DHT22;6813;60.352;15.746;2023-10-19T01:49:19;2.90;99.90
13482;DHT22;6813;60.352;15.746;2023-10-19T01:51:54;3.00;99.90
13482;DHT22;6813;60.352;15.746;2023-10-19T01:54:21;2.90;99.90
13482;DHT22;6813;60.352;15.746;2023-10-19T01:56:54;2.80;99.90
13482;DHT22;6813;60.352;15.746;2023-10-19T01:59:23;2.80;99.90
13482;DHT22;6813;60.352;15.746;2023-10-19T02:01:55;2.70;99.90
13482;DHT22;6813;60.352;15.746;2023-10-19T02:04:21;2.70;99.90
13482;DHT22;6813;60.352;15.746;2023-10-19T02:06:47;2.80;99.90
13482;DHT22;6813;60.352;15.746;2023-10-19T02:09:14;2.80;99.90
13482;DHT22;6813;60.352;15.746;2023-10-19T02:11:40;2.80;99.90
13482;DHT22;6813;60.352;15.746;2023-10-19T02:14:11;2.80;99.90
13482;DHT22;6813;60.352;15.746;2023-10-19T02:16:53;2.70;99.90
13482;DHT22;6813;60.352;15.746;2023-10-19T02:19:22;2.80;99.90
13482;DHT22;6813;60.352;15.746;2023-10-19T02:21:54;2.80;99.90
13482;DHT22;6813;60.352;15.746;2023-10-19T02:24:21;2.80;99.90
13482;DHT22;6813;60.352;15.746;2023-10-19T02:26:51;2.80;99.90
13482;DHT22;6813;60.352;15.746;2023-10-19T02:29:17;2.80;99.90
13482;DHT22;6813;60.352;15.746;2023-10-19T02:31:43;2.70;99.90
13482;DHT22;6813;60.352;15.746;2023-10-19T02:34:10;2.60;99.90
13482;DHT22;6813;60.352;15.746;2023-10-19T02:36:38;2.60;99.90
13482;DHT22;6813;60.352;15.746;2023-10-19T02:39:08;2.50;99.90
13482;DHT22;6813;60.352;15.746;2023-10-19T02:41:45;2.40;99.90
13482;DHT22;6813;60.352;15.746;2023-10-19T02:44:17;2.30;99.90
13482;DHT22;6813;60.352;15.746;2023-10-19T02:46:47;2.30;99.90
13482;DHT22;6813;60.352;15.746;2023-10-19T02:49:16;2.40;99.90
13482;DHT22;6813;60.352;15.746;2023-10-19T02:51:49;2.50;99.90
13482;DHT22;6813;60.352;15.746;2023-10-19T02:54:17;2.50;99.90
13482;DHT22;6813;60.352;15.746;2023-10-19T02:56:45;2.50;99.90
13482;DHT22;6813;60.352;15.746;2023-10-19T02:59:15;2.50;99.90
13482;DHT22;6813;60.352;15.746;2023-10-19T03:01:54;2.50;99.90
13482;DHT22;6813;60.352;15.746;2023-10-19T03:04:26;2.50;99.90
13482;DHT22;6813;60.352;15.746;2023-10-19T03:06:54;2.50;99.90
13482;DHT22;6813;60.352;15.746;2023-10-19T03:09:22;2.40;99.90
13482;DHT22;6813;60.352;15.746;2023-10-19T03:11:50;2.30;99.90
13482;DHT22;6813;60.352;15.746;2023-10-19T03:14:21;2.30;99.90
13482;DHT22;6813;60.352;15.746;2023-10-19T03:16:50;2.20;99.90
13482;DHT22;6813;60.352;15.746;2023-10-19T03:19:16;2.30;99.90
13482;DHT22;6813;60.352;15.746;2023-10-19T03:21:42;2.40;99.90
13482;DHT22;6813;60.352;15.746;2023-10-19T03:24:12;2.40;99.90
13482;DHT22;6813;60.352;15.746;2023-10-19T03:26:58;2.40;99.90
13482;DHT22;6813;60.352;15.746;2023-10-19T03:29:25;2.40;99.90
13482;DHT22;6813;60.352;15.746;2023-10-19T03:32:07;2.40;99.90
13482;DHT22;6813;60.352;15.746;2023-10-19T03:34:34;2.30;99.90
13482;DHT22;6813;60.352;15.746;2023-10-19T03:37:00;2.20;99.90
13482;DHT22;6813;60.352;15.746;2023-10-19T03:39:35;2.20;99.90
13482;DHT22;6813;60.352;15.746;2023-10-19T03:42:04;2.20;99.90
13482;DHT22;6813;60.352;15.746;2023-10-19T03:44:39;2.10;99.90
13482;DHT22;6813;60.352;15.746;2023-10-19T03:47:10;2.10;99.90
13482;DHT22;6813;60.352;15.746;2023-10-19T03:49:44;2.10;99.90
13482;DHT22;6813;60.352;15.746;2023-10-19T03:52:10;2.10;99.90
13482;DHT22;6813;60.352;15.746;2023-10-19T03:54:36;2.10;99.90
13482;DHT22;6813;60.352;15.746;2023-10-19T03:57:08;2.10;99.90
13482;DHT22;6813;60.352;15.746;2023-10-19T03:59:38;2.10;99.90
13482;DHT22;6813;60.352;15.746;2023-10-19T04:02:04;2.10;99.90
13482;DHT22;6813;60.352;15.746;2023-10-19T04:04:36;2.10;99.90
13482;DHT22;6813;60.352;15.746;2023-10-19T04:07:01;2.10;99.90
13482;DHT22;6813;60.352;15.746;2023-10-19T04:09:36;2.10;99.90
13482;DHT22;6813;60.352;15.746;2023-10-19T04:12:14;2.00;99.90
13482;DHT22;6813;60.352;15.746;2023-10-19T04:14:43;2.00;99.90
13482;DHT22;6813;60.352;15.746;2023-10-19T04:17:08;2.00;99.90
13482;DHT22;6813;60.352;15.746;2023-10-19T04:19:37;1.90;99.90
13482;DHT22;6813;60.352;15.746;2023-10-19T04:22:04;1.90;99.90
13482;DHT22;6813;60.352;15.746;2023-10-19T04:24:30;1.90;99.90
13482;DHT22;6813;60.352;15.746;2023-10-19T04:26:58;1.90;99.90
13482;DHT22;6813;60.352;15.746;2023-10-19T04:29:25;1.90;99.90
13482;DHT22;6813;60.352;15.746;2023-10-19T04:31:53;1.90;99.90
13482;DHT22;6813;60.352;15.746;2023-10-19T04:34:22;2.00;99.90
13482;DHT22;6813;60.352;15.746;2023-10-19T04:36:50;2.00;99.90
13482;DHT22;6813;60.352;15.746;2023-10-19T04:39:16;1.90;99.90
13482;DHT22;6813;60.352;15.746;2023-10-19T04:41:45;1.90;99.90
13482;DHT22;6813;60.352;15.746;2023-10-19T04:44:11;1.90;99.90
13482;DHT22;6813;60.352;15.746;2023-10-19T04:46:37;1.90;99.90
13482;DHT22;6813;60.352;15.746;2023-10-19T04:49:03;1.80;99.90
13482;DHT22;6813;60.352;15.746;2023-10-19T04:51:29;1.80;99.90
13482;DHT22;6813;60.352;15.746;2023-10-19T04:53:55;1.80;99.90
13482;DHT22;6813;60.352;15.746;2023-10-19T04:56:21;1.80;99.90
13482;DHT22;6813;60.352;15.746;2023-10-19T04:58:47;1.80;99.90
13482;DHT22;6813;60.352;15.746;2023-10-19T05:01:13;1.80;99.90
13482;DHT22;6813;60.352;15.746;2023-10-19T05:03:41;1.80;99.90
13482;DHT22;6813;60.352;15.746;2023-10-19T05:06:07;1.70;99.90
13482;DHT22;6813;60.352;15.746;2023-10-19T05:08:35;1.70;99.90
13482;DHT22;6813;60.352;15.746;2023-10-19T05:11:02;1.70;99.90
13482;DHT22;6813;60.352;15.746;2023-10-19T05:13:31;1.60;99.90
13482;DHT22;6813;60.352;15.746;2023-10-19T05:15:57;1.60;99.90
13482;DHT22;6813;60.352;15.746;2023-10-19T05:18:25;1.60;99.90
13482;DHT22;6813;60.352;15.746;2023-10-19T05:20:54;1.60;99.90
13482;DHT22;6813;60.352;15.746;2023-10-19T05:23:23;1.60;99.90
13482;DHT22;6813;60.352;15.746;2023-10-19T05:25:50;1.60;99.90
13482;DHT22;6813;60.352;15.746;2023-10-19T05:28:17;1.70;99.90
13482;DHT22;6813;60.352;15.746;2023-10-19T05:30:44;1.70;99.90
13482;DHT22;6813;60.352;15.746;2023-10-19T05:33:10;1.70;99.90
13482;DHT22;6813;60.352;15.746;2023-10-19T05:35:35;1.70;99.90
13482;DHT22;6813;60.352;15.746;2023-10-19T05:38:06;1.80;99.90
13482;DHT22;6813;60.352;15.746;2023-10-19T05:40:32;1.80;99.90
13482;DHT22;6813;60.352;15.746;2023-10-19T05:42:59;1.70;99.90
13482;DHT22;6813;60.352;15.746;2023-10-19T05:45:26;1.70;99.90
13482;DHT22;6813;60.352;15.746;2023-10-19T05:47:53;1.70;99.90
13482;DHT22;6813;60.352;15.746;2023-10-19T05:50:19;1.60;99.90
13482;DHT22;6813;60.352;15.746;2023-10-19T05:52:45;1.50;99.90
13482;DHT22;6813;60.352;15.746;2023-10-19T05:55:11;1.60;99.90
13482;DHT22;6813;60.352;15.746;2023-10-19T05:57:37;1.50;99.90
13482;DHT22;6813;60.352;15.746;2023-10-19T06:00:09;1.50;99.90
13482;DHT22;6813;60.352;15.746;2023-10-19T06:02:42;1.30;99.90
13482;DHT22;6813;60.352;15.746;2023-10-19T06:05:09;1.20;99.90
13482;DHT22;6813;60.352;15.746;2023-10-19T06:07:35;1.30;99.90
13482;DHT22;6813;60.352;15.746;2023-10-19T06:10:01;1.40;99.90
13482;DHT22;6813;60.352;15.746;2023-10-19T06:12:31;1.50;99.90
13482;DHT22;6813;60.352;15.746;2023-10-19T06:14:57;1.50;99.90
13482;DHT22;6813;60.352;15.746;2023-10-19T06:17:23;1.50;99.90
13482;DHT22;6813;60.352;15.746;2023-10-19T06:19:49;1.50;99.90
13482;DHT22;6813;60.352;15.746;2023-10-19T06:22:14;1.40;99.90
13482;DHT22;6813;60.352;15.746;2023-10-19T06:24:42;1.40;99.90
13482;DHT22;6813;60.352;15.746;2023-10-19T06:27:09;1.60;99.90
13482;DHT22;6813;60.352;15.746;2023-10-19T06:29:35;1.70;99.90
13482;DHT22;6813;60.352;15.746;2023-10-19T06:32:01;1.90;99.90
13482;DHT22;6813;60.352;15.746;2023-10-19T06:34:28;1.80;99.90
13482;DHT22;6813;60.352;15.746;2023-10-19T06:36:53;1.90;99.90
13482;DHT22;6813;60.352;15.746;2023-10-19T06:39:20;2.20;99.90
13482;DHT22;6813;60.352;15.746;2023-10-19T06:41:47;2.40;99.90
13482;DHT22;6813;60.352;15.746;2023-10-19T06:44:13;2.50;99.90
13482;DHT22;6813;60.352;15.746;2023-10-19T06:46:39;2.70;99.90
13482;DHT22;6813;60.352;15.746;2023-10-19T06:49:05;2.80;99.90
13482;DHT22;6813;60.352;15.746;2023-10-19T06:51:31;3.00;99.90
13482;DHT22;6813;60.352;15.746;2023-10-19T06:53:58;3.10;99.90
13482;DHT22;6813;60.352;15.746;2023-10-19T06:56:24;3.20;99.90
13482;DHT22;6813;60.352;15.746;2023-10-19T06:58:50;3.30;99.90
13482;DHT22;6813;60.352;15.746;2023-10-19T07:01:15;3.50;99.90
13482;DHT22;6813;60.352;15.746;2023-10-19T07:03:48;3.60;99.90
13482;DHT22;6813;60.352;15.746;2023-10-19T07:06:14;3.60;99.90
13482;DHT22;6813;60.352;15.746;2023-10-19T07:08:40;3.60;99.90
13482;DHT22;6813;60.352;15.746;2023-10-19T07:11:09;3.70;99.90
13482;DHT22;6813;60.352;15.746;2023-10-19T07:13:35;3.80;99.90
13482;DHT22;6813;60.352;15.746;2023-10-19T07:16:01;3.90;99.90
13482;DHT22;6813;60.352;15.746;2023-10-19T07:18:28;4.10;99.90
13482;DHT22;6813;60.352;15.746;2023-10-19T07:20:54;4.30;99.90
13482;DHT22;6813;60.352;15.746;2023-10-19T07:23:27;4.40;99.90
13482;DHT22;6813;60.352;15.746;2023-10-19T07:25:54;4.40;99.90
13482;DHT22;6813;60.352;15.746;2023-10-19T07:28:24;4.40;99.90
13482;DHT22;6813;60.352;15.746;2023-10-19T07:30:52;4.20;99.90
13482;DHT22;6813;60.352;15.746;2023-10-19T07:33:18;4.10;99.90
13482;DHT22;6813;60.352;15.746;2023-10-19T07:35:49;3.90;99.90
13482;DHT22;6813;60.352;15.746;2023-10-19T07:38:22;3.90;99.90
13482;DHT22;6813;60.352;15.746;2023-10-19T07:40:48;4.00;99.90
13482;DHT22;6813;60.352;15.746;2023-10-19T07:43:14;3.90;99.90
13482;DHT22;6813;60.352;15.746;2023-10-19T07:45:39;3.70;99.90
13482;DHT22;6813;60.352;15.746;2023-10-19T07:48:06;3.60;99.90
13482;DHT22;6813;60.352;15.746;2023-10-19T07:50:35;3.50;99.90
13482;DHT22;6813;60.352;15.746;2023-10-19T07:53:01;3.40;99.90
13482;DHT22;6813;60.352;15.746;2023-10-19T07:55:28;3.30;99.90
13482;DHT22;6813;60.352;15.746;2023-10-19T07:57:54;3.30;99.90
13482;DHT22;6813;60.352;15.746;2023-10-19T08:00:21;3.20;99.90
13482;DHT22;6813;60.352;15.746;2023-10-19T08:02:47;3.30;99.90
13482;DHT22;6813;60.352;15.746;2023-10-19T08:05:17;3.20;99.90
13482;DHT22;6813;60.352;15.746;2023-10-19T08:07:46;3.20;99.90
13482;DHT22;6813;60.352;15.746;2023-10-19T08:10:16;3.30;99.90
13482;DHT22;6813;60.352;15.746;2023-10-19T08:12:43;3.30;99.90
13482;DHT22;6813;60.352;15.746;2023-10-19T08:15:11;3.30;99.90
13482;DHT22;6813;60.352;15.746;2023-10-19T08:17:41;3.20;99.90
13482;DHT22;6813;60.352;15.746;2023-10-19T08:20:08;3.20;99.90
13482;DHT22;6813;60.352;15.746;2023-10-19T08:22:38;3.40;99.90
13482;DHT22;6813;60.352;15.746;2023-10-19T08:25:04;3.50;99.90
13482;DHT22;6813;60.352;15.746;2023-10-19T08:27:46;3.50;99.90
13482;DHT22;6813;60.352;15.746;2023-10-19T08:30:17;3.50;99.90
13482;DHT22;6813;60.352;15.746;2023-10-19T08:32:44;3.40;99.90
13482;DHT22;6813;60.352;15.746;2023-10-19T08:35:14;3.30;99.90
13482;DHT22;6813;60.352;15.746;2023-10-19T08:37:40;3.30;99.90
13482;DHT22;6813;60.352;15.746;2023-10-19T08:40:11;3.30;99.90
13482;DHT22;6813;60.352;15.746;2023-10-19T08:42:45;3.30;99.90
13482;DHT22;6813;60.352;15.746;2023-10-19T08:45:11;3.30;99.90
13482;DHT22;6813;60.352;15.746;2023-10-19T08:47:59;3.40;99.90
13482;DHT22;6813;60.352;15.746;2023-10-19T08:50:33;3.30;99.90
13482;DHT22;6813;60.352;15.746;2023-10-19T08:53:01;3.40;99.90
13482;DHT22;6813;60.352;15.746;2023-10-19T08:55:30;3.30;99.90
13482;DHT22;6813;60.352;15.746;2023-10-19T08:57:56;3.20;99.90
13482;DHT22;6813;60.352;15.746;2023-10-19T09:00:25;3.10;99.90
13482;DHT22;6813;60.352;15.746;2023-10-19T09:02:52;3.00;99.90
13482;DHT22;6813;60.352;15.746;2023-10-19T09:05:19;3.20;99.90
13482;DHT22;6813;60.352;15.746;2023-10-19T09:07:54;3.40;99.90
13482;DHT22;6813;60.352;15.746;2023-10-19T09:10:21;3.50;99.90
13482;DHT22;6813;60.352;15.746;2023-10-19T09:13:05;3.60;99.90
13482;DHT22;6813;60.352;15.746;2023-10-19T09:15:34;3.50;99.90
13482;DHT22;6813;60.352;15.746;2023-10-19T09:20:44;3.50;99.90
13482;DHT22;6813;60.352;15.746;2023-10-19T09:23:19;3.50;99.90
13482;DHT22;6813;60.352;15.746;2023-10-19T09:25:47;3.60;99.90
13482;DHT22;6813;60.352;15.746;2023-10-19T09:28:13;3.70;99.90
13482;DHT22;6813;60.352;15.746;2023-10-19T09:30:40;3.80;99.90
13482;DHT22;6813;60.352;15.746;2023-10-19T09:33:08;3.80;99.90
13482;DHT22;6813;60.352;15.746;2023-10-19T09:35:34;3.80;99.90
13482;DHT22;6813;60.352;15.746;2023-10-19T09:38:02;3.90;99.90
13482;DHT22;6813;60.352;15.746;2023-10-19T09:40:30;4.00;99.90
13482;DHT22;6813;60.352;15.746;2023-10-19T09:42:58;4.10;99.90
13482;DHT22;6813;60.352;15.746;2023-10-19T09:45:29;4.10;99.90
13482;DHT22;6813;60.352;15.746;2023-10-19T09:47:55;4.20;99.90
13482;DHT22;6813;60.352;15.746;2023-10-19T09:50:22;4.30;99.90
13482;DHT22;6813;60.352;15.746;2023-10-19T09:52:48;4.40;99.90
13482;DHT22;6813;60.352;15.746;2023-10-19T09:55:22;4.50;99.90
13482;DHT22;6813;60.352;15.746;2023-10-19T09:58:12;4.60;99.90
13482;DHT22;6813;60.352;15.746;2023-10-19T10:00:49;4.70;99.90
13482;DHT22;6813;60.352;15.746;2023-10-19T10:03:46;4.70;99.90
13482;DHT22;6813;60.352;15.746;2023-10-19T10:06:14;4.60;99.90
13482;DHT22;6813;60.352;15.746;2023-10-19T10:08:44;4.60;99.90
13482;DHT22;6813;60.352;15.746;2023-10-19T10:11:18;4.60;99.90
13482;DHT22;6813;60.352;15.746;2023-10-19T10:13:45;4.60;99.90
13482;DHT22;6813;60.352;15.746;2023-10-19T10:16:15;4.70;99.90
13482;DHT22;6813;60.352;15.746;2023-10-19T10:18:41;4.50;99.90
13482;DHT22;6813;60.352;15.746;2023-10-19T10:21:08;4.60;99.90
13482;DHT22;6813;60.352;15.746;2023-10-19T10:26:13;4.80;99.90
13482;DHT22;6813;60.352;15.746;2023-10-19T10:28:46;5.00;99.90
13482;DHT22;6813;60.352;15.746;2023-10-19T10:31:20;5.20;99.90
13482;DHT22;6813;60.352;15.746;2023-10-19T10:33:53;5.40;99.90
13482;DHT22;6813;60.352;15.746;2023-10-19T10:36:23;5.50;99.90
13482;DHT22;6813;60.352;15.746;2023-10-19T10:38:50;5.50;99.90
13482;DHT22;6813;60.352;15.746;2023-10-19T10:41:25;5.50;99.90
13482;DHT22;6813;60.352;15.746;2023-10-19T10:43:55;5.40;99.90
13482;DHT22;6813;60.352;15.746;2023-10-19T10:46:25;5.30;99.90
13482;DHT22;6813;60.352;15.746;2023-10-19T10:48:51;5.30;99.90
13482;DHT22;6813;60.352;15.746;2023-10-19T10:51:18;5.30;99.90
13482;DHT22;6813;60.352;15.746;2023-10-19T10:53:47;5.30;99.90
13482;DHT22;6813;60.352;15.746;2023-10-19T10:56:14;5.30;99.90
13482;DHT22;6813;60.352;15.746;2023-10-19T10:58:39;5.30;99.90
13482;DHT22;6813;60.352;15.746;2023-10-19T11:01:06;5.30;99.90
13482;DHT22;6813;60.352;15.746;2023-10-19T11:03:32;5.30;99.90
13482;DHT22;6813;60.352;15.746;2023-10-19T11:06:05;5.40;99.90
13482;DHT22;6813;60.352;15.746;2023-10-19T11:08:34;5.40;99.90
13482;DHT22;6813;60.352;15.746;2023-10-19T11:11:09;5.40;99.90
13482;DHT22;6813;60.352;15.746;2023-10-19T11:13:39;5.40;99.90
13482;DHT22;6813;60.352;15.746;2023-10-19T11:16:06;5.30;99.90
13482;DHT22;6813;60.352;15.746;2023-10-19T11:18:36;5.30;99.90
13482;DHT22;6813;60.352;15.746;2023-10-19T11:21:05;5.20;99.90
13482;DHT22;6813;60.352;15.746;2023-10-19T11:23:48;5.30;99.90
13482;DHT22;6813;60.352;15.746;2023-10-19T11:26:18;5.20;99.90
13482;DHT22;6813;60.352;15.746;2023-10-19T11:28:44;5.20;99.90
13482;DHT22;6813;60.352;15.746;2023-10-19T11:31:23;5.20;99.90
13482;DHT22;6813;60.352;15.746;2023-10-19T11:33:53;5.20;99.90
13482;DHT22;6813;60.352;15.746;2023-10-19T11:36:21;5.20;99.90
13482;DHT22;6813;60.352;15.746;2023-10-19T11:38:50;5.30;99.90
13482;DHT22;6813;60.352;15.746;2023-10-19T11:41:19;5.30;99.90
13482;DHT22;6813;60.352;15.746;2023-10-19T11:43:46;5.30;99.90
13482;DHT22;6813;60.352;15.746;2023-10-19T11:46:13;5.30;99.90
13482;DHT22;6813;60.352;15.746;2023-10-19T11:48:48;5.30;99.90
13482;DHT22;6813;60.352;15.746;2023-10-19T11:51:14;5.20;99.90
13482;DHT22;6813;60.352;15.746;2023-10-19T11:53:41;5.20;99.90
13482;DHT22;6813;60.352;15.746;2023-10-19T11:56:09;5.10;99.90
13482;DHT22;6813;60.352;15.746;2023-10-19T11:58:37;5.20;99.90
13482;DHT22;6813;60.352;15.746;2023-10-19T12:01:05;5.20;99.90
13482;DHT22;6813;60.352;15.746;2023-10-19T12:03:34;5.20;99.90
13482;DHT22;6813;60.352;15.746;2023-10-19T12:06:03;5.10;99.90
13482;DHT22;6813;60.352;15.746;2023-10-19T12:08:35;5.10;99.90
13482;DHT22;6813;60.352;15.746;2023-10-19T12:11:02;5.10;99.90
13482;DHT22;6813;60.352;15.746;2023-10-19T12:13:32;4.90;99.90
13482;DHT22;6813;60.352;15.746;2023-10-19T12:15:58;4.70;99.90
13482;DHT22;6813;60.352;15.746;2023-10-19T12:18:24;4.60;99.90
13482;DHT22;6813;60.352;15.746;2023-10-19T12:20:54;4.70;99.90
13482;DHT22;6813;60.352;15.746;2023-10-19T12:23:25;4.60;99.90
13482;DHT22;6813;60.352;15.746;2023-10-19T12:25:51;4.60;99.90
13482;DHT22;6813;60.352;15.746;2023-10-19T12:28:18;4.60;99.90
13482;DHT22;6813;60.352;15.746;2023-10-19T12:30:44;4.70;99.90
13482;DHT22;6813;60.352;15.746;2023-10-19T12:33:10;4.70;99.90
13482;DHT22;6813;60.352;15.746;2023-10-19T12:35:42;4.80;99.90
13482;DHT22;6813;60.352;15.746;2023-10-19T12:38:18;4.90;99.90
13482;DHT22;6813;60.352;15.746;2023-10-19T12:40:49;4.90;99.90
13482;DHT22;6813;60.352;15.746;2023-10-19T12:43:17;4.90;99.90
13482;DHT22;6813;60.352;15.746;2023-10-19T12:45:47;5.00;99.90
13482;DHT22;6813;60.352;15.746;2023-10-19T12:48:16;4.90;99.90
13482;DHT22;6813;60.352;15.746;2023-10-19T12:50:42;4.90;99.90
13482;DHT22;6813;60.352;15.746;2023-10-19T12:53:08;4.90;99.90
13482;DHT22;6813;60.352;15.746;2023-10-19T12:55:35;4.90;99.90
13482;DHT22;6813;60.352;15.746;2023-10-19T12:58:06;5.00;99.90
13482;DHT22;6813;60.352;15.746;2023-10-19T13:00:38;4.90;99.90
13482;DHT22;6813;60.352;15.746;2023-10-19T13:03:10;4.90;99.90
13482;DHT22;6813;60.352;15.746;2023-10-19T13:05:40;4.80;99.90
13482;DHT22;6813;60.352;15.746;2023-10-19T13:08:13;4.70;99.90
13482;DHT22;6813;60.352;15.746;2023-10-19T13:10:39;4.60;99.90
13482;DHT22;6813;60.352;15.746;2023-10-19T13:13:08;4.60;99.90
13482;DHT22;6813;60.352;15.746;2023-10-19T13:15:38;4.60;99.90
13482;DHT22;6813;60.352;15.746;2023-10-19T13:18:06;4.70;99.90
13482;DHT22;6813;60.352;15.746;2023-10-19T13:20:37;4.70;99.90
13482;DHT22;6813;60.352;15.746;2023-10-19T13:23:07;4.70;99.90
13482;DHT22;6813;60.352;15.746;2023-10-19T13:25:37;4.70;99.90
13482;DHT22;6813;60.352;15.746;2023-10-19T13:28:27;4.60;99.90
13482;DHT22;6813;60.352;15.746;2023-10-19T13:30:54;4.70;99.90
13482;DHT22;6813;60.352;15.746;2023-10-19T13:33:20;4.70;99.90
13482;DHT22;6813;60.352;15.746;2023-10-19T13:35:47;4.60;99.90
13482;DHT22;6813;60.352;15.746;2023-10-19T13:38:17;4.60;99.90
13482;DHT22;6813;60.352;15.746;2023-10-19T13:40:43;4.60;99.90
13482;DHT22;6813;60.352;15.746;2023-10-19T13:43:10;4.70;99.90
13482;DHT22;6813;60.352;15.746;2023-10-19T13:45:40;4.70;99.90
13482;DHT22;6813;60.352;15.746;2023-10-19T13:48:08;4.80;99.90
13482;DHT22;6813;60.352;15.746;2023-10-19T13:50:35;4.80;99.90
13482;DHT22;6813;60.352;15.746;2023-10-19T13:53:02;4.90;99.90
13482;DHT22;6813;60.352;15.746;2023-10-19T13:55:31;4.90;99.90
13482;DHT22;6813;60.352;15.746;2023-10-19T13:57:58;4.80;99.90
13482;DHT22;6813;60.352;15.746;2023-10-19T14:00:25;4.70;99.90
13482;DHT22;6813;60.352;15.746;2023-10-19T14:02:58;4.60;99.90
13482;DHT22;6813;60.352;15.746;2023-10-19T14:05:27;4.50;99.90
13482;DHT22;6813;60.352;15.746;2023-10-19T14:07:53;4.50;99.90
13482;DHT22;6813;60.352;15.746;2023-10-19T14:10:19;4.50;99.90
13482;DHT22;6813;60.352;15.746;2023-10-19T14:12:46;4.50;99.90
13482;DHT22;6813;60.352;15.746;2023-10-19T14:15:16;4.50;99.90
13482;DHT22;6813;60.352;15.746;2023-10-19T14:17:47;4.60;99.90
13482;DHT22;6813;60.352;15.746;2023-10-19T14:20:14;4.60;99.90
13482;DHT22;6813;60.352;15.746;2023-10-19T14:25:10;4.70;99.90
13482;DHT22;6813;60.352;15.746;2023-10-19T14:27:43;4.80;99.90
13482;DHT22;6813;60.352;15.746;2023-10-19T14:30:11;4.80;99.90
13482;DHT22;6813;60.352;15.746;2023-10-19T14:32:41;4.90;99.90
13482;DHT22;6813;60.352;15.746;2023-10-19T14:35:11;4.80;99.90
13482;DHT22;6813;60.352;15.746;2023-10-19T14:37:43;4.70;99.90
13482;DHT22;6813;60.352;15.746;2023-10-19T14:40:10;4.60;99.90
13482;DHT22;6813;60.352;15.746;2023-10-19T14:42:40;4.50;99.90
13482;DHT22;6813;60.352;15.746;2023-10-19T14:45:25;4.40;99.90
13482;DHT22;6813;60.352;15.746;2023-10-19T14:47:52;4.30;99.90
13482;DHT22;6813;60.352;15.746;2023-10-19T14:50:20;4.30;99.90
13482;DHT22;6813;60.352;15.746;2023-10-19T14:52:49;4.30;99.90
13482;DHT22;6813;60.352;15.746;2023-10-19T14:55:16;4.20;99.90
13482;DHT22;6813;60.352;15.746;2023-10-19T14:57:44;4.20;99.90
13482;DHT22;6813;60.352;15.746;2023-10-19T15:00:19;4.10;99.90
13482;DHT22;6813;60.352;15.746;2023-10-19T15:02:49;4.10;99.90
13482;DHT22;6813;60.352;15.746;2023-10-19T15:05:17;4.10;99.90
13482;DHT22;6813;60.352;15.746;2023-10-19T15:07:45;4.10;99.90
13482;DHT22;6813;60.352;15.746;2023-10-19T15:10:12;4.10;99.90
13482;DHT22;6813;60.352;15.746;2023-10-19T15:12:41;4.10;99.90
13482;DHT22;6813;60.352;15.746;2023-10-19T15:15:08;4.00;99.90
13482;DHT22;6813;60.352;15.746;2023-10-19T15:17:37;4.00;99.90
13482;DHT22;6813;60.352;15.746;2023-10-19T15:20:05;3.90;99.90
13482;DHT22;6813;60.352;15.746;2023-10-19T15:22:31;3.90;99.90
13482;DHT22;6813;60.352;15.746;2023-10-19T15:24:58;3.90;99.90
13482;DHT22;6813;60.352;15.746;2023-10-19T15:27:24;3.80;99.90
13482;DHT22;6813;60.352;15.746;2023-10-19T15:29:49;3.70;99.90
13482;DHT22;6813;60.352;15.746;2023-10-19T15:32:15;3.60;99.90
13482;DHT22;6813;60.352;15.746;2023-10-19T15:34:41;3.50;99.90
13482;DHT22;6813;60.352;15.746;2023-10-19T15:37:07;3.50;99.90
13482;DHT22;6813;60.352;15.746;2023-10-19T15:39:33;3.50;99.90
13482;DHT22;6813;60.352;15.746;2023-10-19T15:42:00;3.50;99.90
13482;DHT22;6813;60.352;15.746;2023-10-19T15:44:26;3.50;99.90
13482;DHT22;6813;60.352;15.746;2023-10-19T15:46:52;3.50;99.90
13482;DHT22;6813;60.352;15.746;2023-10-19T15:49:18;3.50;99.90
13482;DHT22;6813;60.352;15.746;2023-10-19T15:51:45;3.50;99.90
13482;DHT22;6813;60.352;15.746;2023-10-19T15:54:11;3.50;99.90
13482;DHT22;6813;60.352;15.746;2023-10-19T15:56:38;3.60;99.90
13482;DHT22;6813;60.352;15.746;2023-10-19T15:59:05;3.60;99.90
13482;DHT22;6813;60.352;15.746;2023-10-19T16:01:32;3.60;99.90
13482;DHT22;6813;60.352;15.746;2023-10-19T16:03:58;3.60;99.90
13482;DHT22;6813;60.352;15.746;2023-10-19T16:06:23;3.60;99.90